McNary, Oregon
Current Conditions -  °F | °C
As of 9:53 AM on Thursday 27 Nov 2014 (Local Time) from KHRI Reporting Station
Overcast Overcast  
Wind Chill: 53°   Ceiling: 8000
Heat Index: 53°   Visibility: 10mi
Dew Point: 44°   Wind: 0mph
Humidity: 71%   Direction: NA
Pressure: 29.93"   Gusts: NA
Location:  45.9093°N, 119.286°W
Report Text: KHRI 271753Z AUTO 00000KT 10SM OVC080 12/07 A2993 RMK AO2 SLP135 T01170067 10117 20028 58001
Loading
Personal Weather Stations






























Interactive Weather Map New forecast layout! Learn more

10-Day Weather Forecast

Advertisements
Track Severe Weather on mobile